Flight Track Log - Related Links

Times and Time Zones

All times are in EDT time to prevent confusion due to time zone crossing. See the EJA929 flight status page for this flight to view local times or setup timezone preferences in your user account.

Time Position Orientation Groundspeed Altitude Reporting Facility
EDT Latitude Longitude Course Direction KTS MPH feet Rate Location/Type
Tue 06:41:46 PM 40.7667 -74.4333 240° Southwest 190 219 1,800  Level New York TRACON
Tue 06:42:40 PM 40.7167 -74.4167 166° South 236 272 3,900 2,684 Climbing New York TRACON
Tue 06:43:40 PM 40.6500 -74.4000 169° South 268 308 6,900 2,480 Climbing New York TRACON
Tue 06:45:39 PM 40.6881 -74.5725 286° West 281 323 11,300 1,944 Climbing New York Center
Tue 06:46:39 PM 40.7258 -74.6842 294° West 323 372 12,700 1,500 Climbing New York Center
Tue 06:47:00 PM 40.4735 -74.9726 240° Southwest  Level Estimated
Tue 06:47:39 PM 40.7531 -74.8061 286° West 345 397 14,300  Level New York Center
Tue 06:48:39 PM 40.7233 -74.9386 254° West 357 411 16,000 1,600 Climbing New York Center
Tue 06:49:39 PM 40.6881 -75.0542 248° West 378 435 17,500 1,500 Climbing New York Center
Tue 06:50:39 PM 40.6356 -75.1767 241° Southwest 385 443 19,000 1,150 Climbing New York Center
Tue 06:51:39 PM 40.5789 -75.3014 239° Southwest 395 455 19,800 500 Climbing New York Center
Tue 06:52:39 PM 40.5217 -75.4286 239° Southwest 395 455 20,000 100 Climbing New York Center
Tue 06:53:39 PM 40.4647 -75.5531 239° Southwest 401 461 20,000  Level New York Center
Tue 06:54:39 PM 40.4075 -75.6800 239° Southwest 401 461 20,000  Level New York Center
Tue 06:55:39 PM 40.3522 -75.8014 239° Southwest 406 467 20,000  Level New York Center
Tue 06:56:39 PM 40.2836 -75.9433 238° Southwest 406 467 20,000 -300 Level New York Center
Tue 06:57:39 PM 40.2239 -76.0667 238° Southwest 412 474 19,400 -800 Descending New York Center
Tue 06:58:39 PM 40.1683 -76.1900 240° Southwest 407 468 18,400 -950 Descending New York Center
Tue 06:59:39 PM 40.1083 -76.3156 238° Southwest 407 468 17,500 -990 Descending New York Center
Tue 07:01:59 PM 39.9833 -76.6000 240° Southwest 393 452 15,100 -780 Descending Potomac TRACON
Tue 07:02:59 PM 39.9333 -76.7000 237° Southwest 380 437 14,900 -50 Descending Potomac TRACON
Tue 07:03:59 PM 39.8833 -76.8000 237° Southwest 334 384 15,000 50 Climbing Potomac TRACON
Tue 07:04:59 PM 39.8333 -76.9000 237° Southwest 317 365 15,000 -650 Level Potomac TRACON
Tue 07:05:59 PM 39.7833 -77.0000 237° Southwest 317 365 13,700 -1,450 Descending Potomac TRACON
Tue 07:06:59 PM 39.7333 -77.1000 237° Southwest 319 367 12,100 -1,550 Descending Potomac TRACON
Tue 07:07:59 PM 39.7000 -77.2000 247° West 312 359 10,600 -1,500 Descending Potomac TRACON
Tue 07:08:59 PM 39.6333 -77.2833 224° Southwest 306 352 9,100 -1,500 Descending Potomac TRACON
Tue 07:09:59 PM 39.5833 -77.3500 226° Southwest 298 343 7,600 -1,513 Descending Potomac TRACON
Tue 07:10:54 PM 39.5167 -77.4167 218° Southwest 292 336 6,200 -1,409 Descending Potomac TRACON
Tue 07:11:54 PM 39.4333 -77.4333 189° South 272 313 4,900 -1,050 Descending Potomac TRACON
Tue 07:12:54 PM 39.3667 -77.4333 180° South 271 312 4,100 -450 Descending Potomac TRACON
Tue 07:13:54 PM 39.2833 -77.4333 180° South 272 313 4,000 -350 Descending Potomac TRACON
Tue 07:14:54 PM 39.2167 -77.4333 180° South 255 293 3,400 -500 Descending Potomac TRACON
Tue 07:15:54 PM 39.1500 -77.4333 180° South 199 229 3,000 -200 Descending Potomac TRACON
Tue 07:16:54 PM 39.1000 -77.4333 180° South 170 196 3,000 -350 Level Potomac TRACON
Tue 07:17:54 PM 39.0667 -77.4333 180° South 177 204 2,300 -750 Descending Potomac TRACON
Tue 07:18:54 PM 39.0167 -77.4333 180° South 152 175 1,500 -694 Descending Potomac TRACON
Tue 07:19:55 PM 38.9833 -77.4333 180° South 120 138 900 -590 Descending Potomac TRACON
Tue 07:21:00 PM 38.9474 -77.4599 180° South  Level Estimated
Tue 07:28:00 PM 38.9474 -77.4599 349° North  Level Estimated
Tue 07:29:00 PM 38.9474 -77.4599 349° North  Level Estimated
Tue 07:30:00 PM 38.9474 -77.4599 349° North  Level Estimated

Login

Don't have an account? Register now (free) for customized features, flight alerts, and more!